createdAt,value
2019-06-10T00:02:05.256Z,100836.16
2019-06-10T00:04:38.782Z,100833.87
2019-06-10T00:07:12.035Z,100839.09
2019-06-10T00:09:44.491Z,100837.89
2019-06-10T00:12:17.063Z,100830.69
2019-06-10T00:14:50.966Z,100831.13
2019-06-10T00:17:23.683Z,100825.08
2019-06-10T00:19:57.145Z,100819.39
2019-06-10T00:22:31.528Z,100821.08
2019-06-10T00:25:07.313Z,100817.33
2019-06-10T00:27:42.045Z,100823.36
2019-06-10T00:30:13.861Z,100823.17
2019-06-10T00:32:46.434Z,100821.52
2019-06-10T00:35:21.117Z,100825.53
2019-06-10T00:37:53.663Z,100826.45
2019-06-10T00:40:26.134Z,100827.60
2019-06-10T00:43:00.071Z,100832.23
2019-06-10T00:45:32.769Z,100824.80
2019-06-10T00:48:15.780Z,100830.82
2019-06-10T00:50:41.391Z,100829.14
2019-06-10T00:53:14.823Z,100828.41
2019-06-10T00:55:47.339Z,100825.75
2019-06-10T00:58:21.634Z,100817.41
2019-06-10T01:00:53.794Z,100818.69
2019-06-10T01:03:26.325Z,100812.29
2019-06-10T01:06:01.136Z,100814.13
2019-06-10T01:08:33.124Z,100809.61
2019-06-10T01:11:12.526Z,100814.62
2019-06-10T01:13:41.377Z,100811.69
2019-06-10T01:16:15.507Z,100821.80
2019-06-10T01:18:51.069Z,100813.09
2019-06-10T01:21:23.599Z,100819.91
2019-06-10T01:23:56.049Z,100814.70
2019-06-10T01:26:30.871Z,100819.39
2019-06-10T01:29:03.007Z,100819.01
2019-06-10T01:31:35.477Z,100823.37
2019-06-10T01:34:07.899Z,100826.36
2019-06-10T01:36:40.778Z,100825.94
2019-06-10T01:39:14.877Z,100835.64
2019-06-10T01:41:47.759Z,100835.94
2019-06-10T01:44:22.010Z,100835.19
2019-06-10T01:46:54.502Z,100836.84
2019-06-10T01:49:27.250Z,100834.77
2019-06-10T01:52:01.677Z,100842.17
2019-06-10T01:54:34.769Z,100841.48
2019-06-10T01:57:07.742Z,100840.23
2019-06-10T01:59:41.293Z,100841.56
2019-06-10T02:02:17.293Z,100847.45
2019-06-10T02:04:51.754Z,100842.09
2019-06-10T02:07:24.762Z,100841.48
2019-06-10T02:09:57.197Z,100844.12
2019-06-10T02:12:31.531Z,100843.63
2019-06-10T02:15:07.800Z,100849.00
2019-06-10T02:17:41.720Z,100850.20
2019-06-10T02:20:16.855Z,100846.80
2019-06-10T02:22:51.577Z,100842.88
2019-06-10T02:25:24.245Z,100842.00
2019-06-10T02:27:56.797Z,100838.28
2019-06-10T02:30:41.758Z,100837.34
2019-06-10T02:33:03.674Z,100827.98
2019-06-10T02:35:43.910Z,100820.13
2019-06-10T02:38:10.315Z,100818.09
2019-06-10T02:40:43.679Z,100828.15
2019-06-10T02:43:20.970Z,100828.08
2019-06-10T02:45:53.103Z,100820.89
2019-06-10T02:48:30.446Z,100828.88
2019-06-10T02:51:07.516Z,100831.29
2019-06-10T02:53:43.086Z,100827.87
2019-06-10T02:56:17.730Z,100824.88
2019-06-10T02:58:53.249Z,100830.55
2019-06-10T03:01:31.892Z,100827.23
2019-06-10T03:03:58.332Z,100826.38
2019-06-10T03:06:36.301Z,100828.57
2019-06-10T03:09:07.226Z,100826.30
2019-06-10T03:11:41.531Z,100826.05
2019-06-10T03:14:16.235Z,100825.94
2019-06-10T03:16:52.587Z,100818.39
2019-06-10T03:19:41.856Z,100815.34
2019-06-10T03:22:02.610Z,100811.94
2019-06-10T03:24:34.486Z,100808.84
2019-06-10T03:27:08.333Z,100808.56
2019-06-10T03:29:42.143Z,100815.65
2019-06-10T03:32:17.687Z,100813.34
2019-06-10T03:34:49.663Z,100814.95
2019-06-10T03:37:23.245Z,100809.42
2019-06-10T03:39:56.349Z,100803.35
2019-06-10T03:42:28.868Z,100801.61
2019-06-10T03:45:03.322Z,100802.87
2019-06-10T03:47:35.665Z,100802.23
2019-06-10T03:50:13.212Z,100802.70
2019-06-10T03:52:46.162Z,100807.97
2019-06-10T03:55:19.348Z,100795.69
2019-06-10T03:57:52.653Z,100805.39
2019-06-10T04:00:27.303Z,100802.84
2019-06-10T04:02:59.864Z,100801.48
2019-06-10T04:05:33.127Z,100801.27
2019-06-10T04:08:05.717Z,100803.34
2019-06-10T04:10:38.435Z,100810.87
2019-06-10T04:13:13.192Z,100812.84
2019-06-10T04:15:45.954Z,100821.62
2019-06-10T04:18:19.688Z,100810.25
2019-06-10T04:20:52.948Z,100820.42
2019-06-10T04:23:26.913Z,100815.09
2019-06-10T04:26:02.047Z,100810.16
2019-06-10T04:28:34.224Z,100805.02
2019-06-10T04:31:06.821Z,100807.00
2019-06-10T04:33:39.311Z,100802.89
2019-06-10T04:36:13.432Z,100794.56
2019-06-10T04:38:45.919Z,100798.70
2019-06-10T04:41:18.425Z,100804.20
2019-06-10T04:43:52.999Z,100804.69
2019-06-10T04:46:26.477Z,100796.78
2019-06-10T04:49:02.496Z,100800.57
2019-06-10T04:51:34.307Z,100802.73
2019-06-10T04:54:07.365Z,100802.55
2019-06-10T04:56:39.970Z,100804.92
2019-06-10T04:59:12.732Z,100798.69
2019-06-10T05:01:45.447Z,100802.39
2019-06-10T05:04:18.921Z,100794.66
2019-06-10T05:06:52.669Z,100789.72
2019-06-10T05:09:27.620Z,100799.18
2019-06-10T05:11:59.729Z,100803.02
2019-06-10T05:14:33.404Z,100802.42
2019-06-10T05:17:06.400Z,100801.21
2019-06-10T05:19:39.143Z,100801.21
2019-06-10T05:22:12.402Z,100798.38
2019-06-10T05:24:47.921Z,100802.36
2019-06-10T05:27:25.353Z,100805.47
2019-06-10T05:29:57.096Z,100803.97
2019-06-10T05:32:33.450Z,100808.56
2019-06-10T05:35:07.733Z,100804.67
2019-06-10T05:37:42.437Z,100806.53
2019-06-10T05:40:15.015Z,100815.08
2019-06-10T05:42:52.913Z,100809.28
2019-06-10T05:45:27.477Z,100809.10
2019-06-10T05:48:02.959Z,100804.03
2019-06-10T05:50:35.436Z,100805.67
2019-06-10T05:53:07.887Z,100811.94
2019-06-10T05:55:42.729Z,100811.20
2019-06-10T05:58:16.045Z,100821.06
2019-06-10T06:00:53.126Z,100822.17
2019-06-10T06:03:27.800Z,100815.97
2019-06-10T06:06:02.895Z,100824.06
2019-06-10T06:08:35.484Z,100825.44
2019-06-10T06:11:08.106Z,100823.39
2019-06-10T06:13:42.981Z,100825.81
2019-06-10T06:16:15.012Z,100828.57
2019-06-10T06:18:47.567Z,100819.73
2019-06-10T06:21:28.885Z,100821.06
2019-06-10T06:23:54.262Z,100821.61
2019-06-10T06:26:28.456Z,100813.05
2019-06-10T06:29:02.232Z,100821.56
2019-06-10T06:31:36.505Z,100811.33
2019-06-10T06:34:09.568Z,100821.13
2019-06-10T06:36:42.359Z,100822.73
2019-06-10T06:39:14.840Z,100817.16
2019-06-10T06:41:48.949Z,100820.70
2019-06-10T06:44:23.457Z,100822.83
2019-06-10T06:46:56.097Z,100824.69
2019-06-10T06:49:28.413Z,100828.30
2019-06-10T06:52:02.866Z,100836.95
2019-06-10T06:54:42.320Z,100834.55
2019-06-10T06:57:14.083Z,100838.13
2019-06-10T06:59:46.609Z,100841.83
2019-06-10T07:02:22.757Z,100843.97
2019-06-10T07:04:55.731Z,100836.02
2019-06-10T07:07:30.127Z,100835.22
2019-06-10T07:10:03.573Z,100830.68
2019-06-10T07:12:39.408Z,100834.48
2019-06-10T07:15:12.845Z,100827.09
2019-06-10T07:17:46.060Z,100824.09
2019-06-10T07:20:20.282Z,100834.02
2019-06-10T07:22:53.301Z,100827.25
2019-06-10T07:25:26.006Z,100830.33
2019-06-10T07:28:01.977Z,100821.17
2019-06-10T07:30:37.655Z,100817.74
2019-06-10T07:33:08.731Z,100812.86
2019-06-10T07:35:43.752Z,100815.63
2019-06-10T07:38:16.265Z,100802.72
2019-06-10T07:40:53.053Z,100805.62
2019-06-10T07:43:27.611Z,100799.68
2019-06-10T07:46:03.417Z,100797.50
2019-06-10T07:48:37.193Z,100797.66
2019-06-10T07:51:12.889Z,100795.51
2019-06-10T07:53:46.692Z,100789.53
2019-06-10T07:56:18.804Z,100791.11
2019-06-10T07:58:53.591Z,100788.40
2019-06-10T08:01:26.080Z,100782.91
2019-06-10T08:03:58.560Z,100780.24
2019-06-10T08:06:36.109Z,100783.82
2019-06-10T08:09:12.634Z,100779.98
2019-06-10T08:11:48.780Z,100780.27
2019-06-10T08:14:22.244Z,100776.70
2019-06-10T08:16:56.519Z,100770.55
2019-06-10T08:19:35.766Z,100778.61
2019-06-10T08:22:05.344Z,100776.16
2019-06-10T08:24:39.379Z,100769.33
2019-06-10T08:27:13.361Z,100769.59
2019-06-10T08:29:49.185Z,100769.61
2019-06-10T08:32:24.229Z,100769.61
2019-06-10T08:34:56.230Z,100779.20
2019-06-10T08:37:28.544Z,100771.78
2019-06-10T08:40:03.654Z,100776.98
2019-06-10T08:42:34.907Z,100781.66
2019-06-10T08:45:07.539Z,100763.53
2019-06-10T08:47:41.151Z,100766.84
2019-06-10T08:50:15.344Z,100763.80
2019-06-10T08:53:03.938Z,100755.25
2019-06-10T08:55:23.649Z,100756.92
2019-06-10T08:57:56.763Z,100755.56
2019-06-10T09:00:29.707Z,100758.48
2019-06-10T09:03:04.162Z,100752.73
2019-06-10T09:05:38.705Z,100758.27
2019-06-10T09:08:13.001Z,100750.28
2019-06-10T09:10:49.330Z,100749.11
2019-06-10T09:13:19.705Z,100744.42
2019-06-10T09:16:09.980Z,100742.27
2019-06-10T09:18:26.661Z,100734.02
2019-06-10T09:20:59.221Z,100737.89
2019-06-10T09:23:33.188Z,100742.58
2019-06-10T09:26:05.974Z,100733.87
2019-06-10T09:28:39.427Z,100735.86
2019-06-10T09:31:13.976Z,100729.09
2019-06-10T09:33:50.222Z,100731.44
2019-06-10T09:36:20.331Z,100727.84
2019-06-10T09:38:54.987Z,100734.55
2019-06-10T09:41:39.447Z,100728.54
2019-06-10T09:44:03.277Z,100720.95
2019-06-10T09:46:35.690Z,100715.41
2019-06-10T09:49:08.147Z,100717.30
2019-06-10T09:51:45.820Z,100711.66
2019-06-10T09:54:16.419Z,100716.17
2019-06-10T09:56:50.468Z,100715.91
2019-06-10T09:59:23.695Z,100713.88
2019-06-10T10:01:58.845Z,100722.61
2019-06-10T10:04:32.633Z,100727.23
2019-06-10T10:07:04.713Z,100725.50
2019-06-10T10:09:37.257Z,100720.98
2019-06-10T10:12:12.248Z,100703.11
2019-06-10T10:14:46.942Z,100710.98
2019-06-10T10:17:18.103Z,100720.64
2019-06-10T10:19:54.839Z,100722.72
2019-06-10T10:22:26.333Z,100723.57
2019-06-10T10:24:58.684Z,100708.25
2019-06-10T10:27:32.306Z,100708.52
2019-06-10T10:30:07.885Z,100701.34
2019-06-10T10:32:44.306Z,100701.67
2019-06-10T10:35:15.529Z,100695.91
2019-06-10T10:37:49.105Z,100709.60
2019-06-10T10:40:24.212Z,100704.69
2019-06-10T10:43:16.265Z,100702.24
2019-06-10T10:45:32.536Z,100699.67
2019-06-10T10:48:06.023Z,100710.61
2019-06-10T10:50:38.319Z,100693.66
2019-06-10T10:53:12.839Z,100689.47
2019-06-10T10:55:45.251Z,100683.44
2019-06-10T10:58:17.853Z,100686.08
2019-06-10T11:00:54.431Z,100678.09
2019-06-10T11:03:24.481Z,100679.12
2019-06-10T11:06:00.670Z,100673.52
2019-06-10T11:08:33.256Z,100669.98
2019-06-10T11:11:06.015Z,100685.55
2019-06-10T11:13:38.470Z,100661.68
2019-06-10T11:16:11.947Z,100670.41
2019-06-10T11:18:47.777Z,100661.09
2019-06-10T11:21:19.763Z,100663.61
2019-06-10T11:23:59.929Z,100657.35
2019-06-10T11:26:32.868Z,100655.19
2019-06-10T11:29:07.221Z,100656.46
2019-06-10T11:31:42.542Z,100651.69
2019-06-10T11:34:19.730Z,100645.56
2019-06-10T11:36:53.557Z,100650.60
2019-06-10T11:39:33.828Z,100644.13
2019-06-10T11:42:07.040Z,100646.89
2019-06-10T11:44:43.035Z,100639.06
2019-06-10T11:47:15.361Z,100636.98
2019-06-10T11:49:48.959Z,100623.28
2019-06-10T11:52:23.070Z,100637.23
2019-06-10T11:55:09.164Z,100619.17
2019-06-10T11:57:32.376Z,100618.86
2019-06-10T12:00:13.629Z,100627.33
2019-06-10T12:02:42.343Z,100616.75
2019-06-10T12:05:17.412Z,100615.12
2019-06-10T12:07:51.807Z,100609.21
2019-06-10T12:10:27.849Z,100614.90
2019-06-10T12:13:06.140Z,100607.74
2019-06-10T12:16:19.847Z,100602.53
2019-06-10T12:18:09.711Z,100605.41
2019-06-10T12:20:42.659Z,100602.16
2019-06-10T12:23:15.194Z,100596.48
2019-06-10T12:25:48.112Z,100596.78
2019-06-10T12:28:21.042Z,100595.78
2019-06-10T12:30:58.248Z,100595.80
2019-06-10T12:33:33.361Z,100591.16
2019-06-10T12:36:07.697Z,100592.32
2019-06-10T12:38:43.620Z,100592.89
2019-06-10T12:41:16.585Z,100583.92
2019-06-10T12:43:48.643Z,100586.77
2019-06-10T12:46:23.219Z,100603.11
2019-06-10T12:48:59.297Z,100593.84
2019-06-10T12:51:29.503Z,100592.04
2019-06-10T12:54:04.812Z,100598.96
2019-06-10T12:56:35.854Z,100599.63
2019-06-10T12:59:09.950Z,100598.88
2019-06-10T13:01:44.789Z,100593.03
2019-06-10T13:04:18.124Z,100587.88
2019-06-10T13:06:52.597Z,100586.40
2019-06-10T13:09:26.380Z,100589.63
2019-06-10T13:11:59.815Z,100585.66
2019-06-10T13:14:33.875Z,100591.86
2019-06-10T13:17:08.353Z,100590.66
2019-06-10T13:19:43.034Z,100589.27
2019-06-10T13:22:15.623Z,100587.27
2019-06-10T13:24:48.001Z,100580.09
2019-06-10T13:27:22.742Z,100584.17
2019-06-10T13:29:56.307Z,100574.16
2019-06-10T13:32:29.367Z,100582.84
2019-06-10T13:35:03.561Z,100574.58
2019-06-10T13:37:35.961Z,100570.20
2019-06-10T13:40:10.739Z,100569.50
2019-06-10T13:42:42.930Z,100561.85
2019-06-10T13:45:15.316Z,100561.85
2019-06-10T13:47:48.207Z,100564.38
2019-06-10T13:50:22.065Z,100567.47
2019-06-10T13:52:58.467Z,100571.88
2019-06-10T13:55:33.004Z,100566.39
2019-06-10T13:58:07.989Z,100567.54
2019-06-10T14:00:46.063Z,100568.58
2019-06-10T14:03:16.270Z,100566.91
2019-06-10T14:05:48.742Z,100564.19
2019-06-10T14:08:23.264Z,100559.17
2019-06-10T14:10:55.544Z,100556.81
2019-06-10T14:13:28.034Z,100555.45
2019-06-10T14:16:03.501Z,100550.28
2019-06-10T14:18:36.701Z,100545.07
2019-06-10T14:21:14.042Z,100544.77
2019-06-10T14:23:44.066Z,100545.33
2019-06-10T14:26:36.647Z,100539.78
2019-06-10T14:28:56.368Z,100537.39
2019-06-10T14:31:42.772Z,100539.23
2019-06-10T14:34:04.333Z,100534.17
2019-06-10T14:36:37.034Z,100539.67
2019-06-10T14:39:10.189Z,100535.69
2019-06-10T14:41:43.375Z,100537.88
2019-06-10T14:44:17.883Z,100538.66
2019-06-10T14:46:50.176Z,100540.00
2019-06-10T14:49:22.621Z,100538.94
2019-06-10T14:51:56.639Z,100539.07
2019-06-10T14:54:32.106Z,100531.83
2019-06-10T14:57:05.236Z,100528.90
2019-06-10T14:59:38.026Z,100533.64
2019-06-10T15:02:12.876Z,100532.14
2019-06-10T15:04:46.991Z,100537.27
2019-06-10T15:07:20.841Z,100541.77
2019-06-10T15:09:53.966Z,100535.86
2019-06-10T15:12:26.406Z,100540.39
2019-06-10T15:14:59.444Z,100537.19
2019-06-10T15:17:32.548Z,100540.98
2019-06-10T15:20:07.459Z,100538.26
2019-06-10T15:22:40.016Z,100535.03
2019-06-10T15:25:16.877Z,100540.73
2019-06-10T15:27:48.343Z,100545.05
2019-06-10T15:30:26.637Z,100541.11
2019-06-10T15:32:55.393Z,100547.69
2019-06-10T15:35:27.994Z,100542.73
2019-06-10T15:38:03.961Z,100540.38
2019-06-10T15:40:34.865Z,100546.84
2019-06-10T15:43:07.793Z,100541.48
2019-06-10T15:45:40.420Z,100540.45
2019-06-10T15:48:16.633Z,100540.72
2019-06-10T15:50:47.316Z,100543.22
2019-06-10T15:53:25.323Z,100544.91
2019-06-10T15:56:13.313Z,100540.77
2019-06-10T15:58:31.976Z,100542.13
2019-06-10T16:01:04.500Z,100536.22
2019-06-10T16:03:37.363Z,100543.53
2019-06-10T16:06:12.039Z,100542.48
2019-06-10T16:08:44.783Z,100542.58
2019-06-10T16:11:18.923Z,100538.23
2019-06-10T16:13:53.382Z,100533.73
2019-06-10T16:16:26.053Z,100525.34
2019-06-10T16:18:58.622Z,100531.61
2019-06-10T16:21:31.225Z,100528.77
2019-06-10T16:24:03.746Z,100533.98
2019-06-10T16:26:36.444Z,100526.50
2019-06-10T16:29:08.895Z,100532.06
2019-06-10T16:31:42.542Z,100516.09
2019-06-10T16:34:17.135Z,100517.33
2019-06-10T16:36:53.365Z,100518.37
2019-06-10T16:39:32.436Z,100526.73
2019-06-10T16:42:07.590Z,100522.89
2019-06-10T16:44:43.140Z,100521.53
2019-06-10T16:47:16.943Z,100525.51
2019-06-10T16:49:52.154Z,100531.16
2019-06-10T16:52:27.697Z,100529.49
2019-06-10T16:55:02.296Z,100520.22
2019-06-10T16:57:35.508Z,100523.95
2019-06-10T17:00:13.845Z,100525.52
2019-06-10T17:02:44.710Z,100526.05
2019-06-10T17:05:18.519Z,100527.27
2019-06-10T17:07:52.661Z,100527.92
2019-06-10T17:10:28.197Z,100530.72
2019-06-10T17:13:03.126Z,100534.91
2019-06-10T17:15:36.194Z,100536.34
2019-06-10T17:18:13.081Z,100532.09
2019-06-10T17:20:46.165Z,100538.85
2019-06-10T17:23:26.988Z,100536.44
2019-06-10T17:25:58.595Z,100537.91
2019-06-10T17:28:36.617Z,100537.41
2019-06-10T17:31:07.862Z,100533.43
2019-06-10T17:33:42.665Z,100545.92
2019-06-10T17:36:15.318Z,100543.41
2019-06-10T17:38:47.894Z,100546.03
2019-06-10T17:41:23.219Z,100542.79
2019-06-10T17:43:55.333Z,100544.13
2019-06-10T17:46:29.501Z,100544.13
2019-06-10T17:49:03.075Z,100540.00
2019-06-10T17:51:36.353Z,100555.02
2019-06-10T17:54:09.568Z,100558.14
2019-06-10T17:56:42.889Z,100556.98
2019-06-10T17:59:16.012Z,100562.08
2019-06-10T18:01:52.279Z,100568.64
2019-06-10T18:04:25.613Z,100567.94
2019-06-10T18:06:59.347Z,100565.31
2019-06-10T18:09:36.634Z,100564.94
2019-06-10T18:12:07.377Z,100570.08
2019-06-10T18:14:42.987Z,100569.88
2019-06-10T18:17:16.357Z,100576.98
2019-06-10T18:19:53.139Z,100577.82
2019-06-10T18:22:26.468Z,100578.38
2019-06-10T18:25:03.019Z,100581.08
2019-06-10T18:27:36.970Z,100581.36
2019-06-10T18:30:14.270Z,100585.84
2019-06-10T18:32:48.076Z,100582.44
2019-06-10T18:35:22.336Z,100587.40
2019-06-10T18:37:56.696Z,100589.52
2019-06-10T18:40:33.499Z,100592.19
2019-06-10T18:43:07.665Z,100584.80
2019-06-10T18:45:42.041Z,100589.80
2019-06-10T18:48:15.772Z,100588.41
2019-06-10T18:50:49.576Z,100593.72
2019-06-10T18:53:23.893Z,100595.12
2019-06-10T18:55:59.059Z,100590.33
2019-06-10T18:58:36.254Z,100590.72
2019-06-10T19:01:12.432Z,100588.11
2019-06-10T19:03:46.011Z,100601.20
2019-06-10T19:06:22.798Z,100595.78
2019-06-10T19:08:55.959Z,100596.66
2019-06-10T19:11:31.684Z,100605.92
2019-06-10T19:14:05.280Z,100595.58
2019-06-10T19:16:44.020Z,100601.13
2019-06-10T19:19:18.617Z,100601.86
2019-06-10T19:22:04.543Z,100602.34
2019-06-10T19:24:28.444Z,100607.11
2019-06-10T19:27:05.287Z,100604.90
2019-06-10T19:29:45.445Z,100605.66
2019-06-10T19:32:13.779Z,100601.91
2019-06-10T19:34:51.992Z,100599.61
2019-06-10T19:37:25.332Z,100602.63
2019-06-10T19:40:01.623Z,100601.67
2019-06-10T19:42:37.150Z,100603.27
2019-06-10T19:45:12.555Z,100599.61
2019-06-10T19:47:46.658Z,100603.25
2019-06-10T19:50:20.264Z,100606.70
2019-06-10T19:52:57.164Z,100608.17
2019-06-10T19:55:32.455Z,100605.83
2019-06-10T19:58:06.500Z,100604.20
2019-06-10T20:00:41.484Z,100599.63
2019-06-10T20:03:15.821Z,100598.86
2019-06-10T20:05:52.749Z,100607.70
2019-06-10T20:08:26.281Z,100605.94
2019-06-10T20:11:03.391Z,100607.67
2019-06-10T20:13:38.941Z,100596.46
2019-06-10T20:16:12.144Z,100597.88
2019-06-10T20:18:48.243Z,100599.38
2019-06-10T20:21:22.706Z,100596.40
2019-06-10T20:23:56.693Z,100587.98
2019-06-10T20:26:32.981Z,100590.20
2019-06-10T20:29:05.421Z,100588.63
2019-06-10T20:31:40.091Z,100586.12
2019-06-10T20:34:13.400Z,100586.25
2019-06-10T20:36:46.942Z,100587.59
2019-06-10T20:39:24.915Z,100586.25
2019-06-10T20:41:58.249Z,100583.13
2019-06-10T20:44:32.576Z,100590.45
2019-06-10T20:47:05.058Z,100584.87
2019-06-10T20:49:37.840Z,100593.86
2019-06-10T20:52:13.277Z,100587.14
2019-06-10T20:54:46.295Z,100580.59
2019-06-10T20:57:18.873Z,100586.82
2019-06-10T20:59:52.799Z,100582.52
2019-06-10T21:02:26.266Z,100584.27
2019-06-10T21:05:02.606Z,100585.30
2019-06-10T21:07:39.219Z,100585.06
2019-06-10T21:10:12.898Z,100584.06
2019-06-10T21:12:49.432Z,100584.98
2019-06-10T21:15:22.963Z,100578.05
2019-06-10T21:17:55.471Z,100576.19
2019-06-10T21:20:28.049Z,100576.13
2019-06-10T21:23:03.110Z,100577.83
2019-06-10T21:25:36.122Z,100576.89
2019-06-10T21:28:08.721Z,100579.80
2019-06-10T21:30:47.030Z,100582.47
2019-06-10T21:33:15.490Z,100583.36
2019-06-10T21:35:48.953Z,100582.36
2019-06-10T21:38:23.203Z,100586.59
2019-06-10T21:40:56.151Z,100580.80
2019-06-10T21:43:28.648Z,100578.69
2019-06-10T21:46:03.675Z,100572.33
2019-06-10T21:48:37.386Z,100583.98
2019-06-10T21:51:10.084Z,100583.33
2019-06-10T21:53:42.641Z,100587.11
2019-06-10T21:56:15.032Z,100589.33
2019-06-10T21:58:48.842Z,100587.61
2019-06-10T22:01:22.510Z,100586.96
2019-06-10T22:04:00.849Z,100590.48
2019-06-10T22:06:30.126Z,100587.61
2019-06-10T22:09:03.985Z,100589.61
2019-06-10T22:11:37.845Z,100584.91
2019-06-10T22:14:12.110Z,100587.98
2019-06-10T22:16:46.195Z,100585.25
2019-06-10T22:19:19.143Z,100592.98
2019-06-10T22:21:53.659Z,100598.55
2019-06-10T22:24:25.933Z,100593.53
2019-06-10T22:26:58.729Z,100596.97
2019-06-10T22:29:32.244Z,100586.63
2019-06-10T22:32:06.512Z,100587.47
2019-06-10T22:34:39.157Z,100581.08
2019-06-10T22:37:12.494Z,100578.74
2019-06-10T22:39:45.678Z,100580.97
2019-06-10T22:42:18.942Z,100581.25
2019-06-10T22:44:54.512Z,100578.84
2019-06-10T22:47:25.661Z,100581.91
2019-06-10T22:49:59.964Z,100590.42
2019-06-10T22:52:32.430Z,100582.71
2019-06-10T22:55:09.330Z,100592.81
2019-06-10T22:57:43.899Z,100592.16
2019-06-10T23:00:16.338Z,100592.84
2019-06-10T23:02:49.844Z,100594.22
2019-06-10T23:05:23.294Z,100589.46
2019-06-10T23:07:57.412Z,100589.46
2019-06-10T23:10:30.427Z,100585.10
2019-06-10T23:13:03.129Z,100584.11
2019-06-10T23:15:35.705Z,100584.77
2019-06-10T23:18:08.256Z,100588.14
2019-06-10T23:20:42.733Z,100585.18
2019-06-10T23:23:15.368Z,100589.56
2019-06-10T23:25:47.882Z,100581.50
2019-06-10T23:28:22.192Z,100583.50
2019-06-10T23:30:57.286Z,100585.87
2019-06-10T23:33:28.625Z,100582.31
2019-06-10T23:36:03.723Z,100583.68
2019-06-10T23:38:35.433Z,100580.48
2019-06-10T23:41:07.798Z,100577.11
2019-06-10T23:43:42.314Z,100574.76
2019-06-10T23:46:14.562Z,100567.22
2019-06-10T23:48:47.106Z,100563.19
2019-06-10T23:51:19.639Z,100566.73
2019-06-10T23:53:55.287Z,100558.33
2019-06-10T23:56:26.869Z,100561.86
2019-06-10T23:59:00.365Z,100567.41
